Archival Weather

Westchester County

White Plains, New York (KHPN)

Report from: Friday, February 23, 2024 11:56 AM EST
Current time: Wednesday, May 29, 2024 8:12 PM EDT

Current weather – Weather history – Daily summaries
Weather forecast

Present weatherMist
Temperature6.1°C (43.0°F)
Wind chill3.1°C (37.7°F)
Dew point3.9°C (39.0°F)
Winds 8 kts (4.1 m/s, 9.2 mph) North-Northwest (330°)
Visibility5 mi. (8 km)
Clouds Scattered clouds 4,600 ft. (1,402 m)
Ceiling: Broken clouds 12,000 ft. (3,658 m)
Altimeter29.48 in.Hg (998 mB)
Relative humidity86 %
Density altitude-453 ft. (-138 m)
Sea-level pressure99.9 kPa (999 mB, 29.49 in.Hg)
Remarks Automated weather observing station with precipitation discriminator
Flight conditions Visual Meteorological Conditions
Raw dataKHPN 231656Z 33008KT 5SM BR SCT046 BKN120 06/04 A2948 RMK AO2 SLP986 T00610039
An error has occurred. This application may no longer respond until reloaded. Reload 🗙